createdAt,value
2019-04-04T00:02:26.599Z,9.40
2019-04-04T00:04:53.779Z,8.57
2019-04-04T00:07:21.000Z,8.47
2019-04-04T00:09:48.356Z,8.67
2019-04-04T00:12:15.675Z,9.83
2019-04-04T00:14:43.901Z,9.13
2019-04-04T00:17:11.872Z,8.77
2019-04-04T00:19:39.176Z,8.57
2019-04-04T00:22:06.610Z,9.10
2019-04-04T00:24:33.848Z,9.53
2019-04-04T00:27:01.183Z,8.47
2019-04-04T00:29:28.544Z,8.47
2019-04-04T00:31:55.882Z,8.90
2019-04-04T00:34:23.328Z,8.73
2019-04-04T00:36:50.701Z,9.27
2019-04-04T00:39:18.029Z,8.00
2019-04-04T00:41:45.492Z,8.73
2019-04-04T00:44:12.791Z,8.13
2019-04-04T00:46:40.081Z,8.30
2019-04-04T00:49:07.518Z,8.57
2019-04-04T00:51:34.742Z,9.43
2019-04-04T00:54:02.237Z,8.30
2019-04-04T00:56:29.551Z,8.40
2019-04-04T00:58:56.906Z,7.97
2019-04-04T01:01:26.329Z,8.53
2019-04-04T01:03:53.476Z,8.00
2019-04-04T01:06:20.720Z,8.30
2019-04-04T01:08:47.944Z,7.60
2019-04-04T01:11:15.424Z,8.23
2019-04-04T01:13:42.651Z,7.03
2019-04-04T01:16:09.904Z,8.40
2019-04-04T01:18:37.590Z,7.30
2019-04-04T01:21:04.967Z,8.30
2019-04-04T01:23:32.218Z,8.13
2019-04-04T01:26:01.243Z,7.53
2019-04-04T01:28:28.711Z,7.57
2019-04-04T01:30:55.919Z,8.13
2019-04-04T01:33:23.399Z,7.40
2019-04-04T01:35:53.665Z,7.97
2019-04-04T01:38:19.852Z,7.70
2019-04-04T01:40:47.116Z,8.00
2019-04-04T01:43:14.470Z,7.70
2019-04-04T01:45:43.723Z,7.93
2019-04-04T01:48:10.997Z,7.83
2019-04-04T01:50:38.631Z,7.87
2019-04-04T01:53:05.850Z,7.70
2019-04-04T01:55:35.067Z,8.33
2019-04-04T01:58:02.340Z,7.13
2019-04-04T02:00:29.682Z,7.90
2019-04-04T02:02:56.996Z,7.27
2019-04-04T02:05:26.698Z,7.40
2019-04-04T02:07:53.435Z,6.80
2019-04-04T02:10:20.667Z,7.37
2019-04-04T02:12:47.987Z,7.40
2019-04-04T02:15:15.289Z,7.30
2019-04-04T02:17:42.594Z,7.17
2019-04-04T02:20:10.444Z,7.03
2019-04-04T02:22:37.900Z,6.80
2019-04-04T02:25:05.726Z,7.00
2019-04-04T02:27:33.275Z,7.57
2019-04-04T02:30:00.529Z,7.07
2019-04-04T02:32:28.227Z,6.80
2019-04-04T02:34:55.651Z,6.93
2019-04-04T02:37:23.009Z,7.10
2019-04-04T02:39:50.365Z,7.10
2019-04-04T02:42:20.973Z,7.23
2019-04-04T02:44:46.829Z,6.93
2019-04-04T02:47:16.818Z,7.57
2019-04-04T02:49:43.717Z,7.00
2019-04-04T02:52:13.314Z,6.83
2019-04-04T02:54:40.230Z,6.70
2019-04-04T02:57:09.270Z,6.07
2019-04-04T02:59:36.724Z,7.10
2019-04-04T03:02:05.785Z,6.50
2019-04-04T03:04:33.184Z,6.63
2019-04-04T03:07:00.636Z,7.10
2019-04-04T03:09:27.946Z,6.90
2019-04-04T03:11:55.589Z,6.80
2019-04-04T03:14:23.052Z,6.73
2019-04-04T03:16:51.067Z,6.23
2019-04-04T03:19:18.513Z,7.00
2019-04-04T03:21:45.824Z,6.33
2019-04-04T03:24:13.290Z,6.13
2019-04-04T03:26:40.623Z,6.33
2019-04-04T03:29:10.428Z,7.07
2019-04-04T03:31:38.835Z,6.30
2019-04-04T03:34:11.205Z,6.47
2019-04-04T03:36:35.243Z,5.70
2019-04-04T03:39:04.867Z,5.97
2019-04-04T03:41:35.833Z,6.23
2019-04-04T03:44:01.364Z,5.93
2019-04-04T03:46:33.665Z,6.00
2019-04-04T03:48:57.829Z,6.27
2019-04-04T03:51:25.154Z,7.58
2019-04-04T03:53:55.985Z,6.50
2019-04-04T03:56:23.210Z,7.30
2019-04-04T03:58:50.709Z,6.70
2019-04-04T04:01:18.018Z,6.50
2019-04-04T04:03:45.667Z,6.53
2019-04-04T04:06:13.076Z,6.90
2019-04-04T04:08:40.440Z,6.87
2019-04-04T04:11:07.665Z,7.10
2019-04-04T04:13:34.999Z,6.37
2019-04-04T04:16:03.695Z,6.30
2019-04-04T04:18:31.213Z,7.00
2019-04-04T04:20:58.443Z,6.73
2019-04-04T04:23:25.859Z,7.03
2019-04-04T04:25:53.209Z,6.60
2019-04-04T04:28:20.925Z,7.20
2019-04-04T04:30:49.052Z,7.30
2019-04-04T04:33:16.359Z,7.27
2019-04-04T04:35:43.628Z,7.20
2019-04-04T04:38:10.951Z,7.17
2019-04-04T04:40:38.259Z,7.17
2019-04-04T04:43:05.607Z,7.60
2019-04-04T04:45:32.928Z,7.97
2019-04-04T04:48:00.385Z,7.63
2019-04-04T04:50:27.813Z,7.07
2019-04-04T04:52:55.031Z,7.70
2019-04-04T04:55:26.639Z,7.07
2019-04-04T04:57:51.520Z,7.60
2019-04-04T05:00:18.852Z,7.23
2019-04-04T05:02:46.089Z,8.00
2019-04-04T05:05:13.649Z,7.57
2019-04-04T05:07:40.954Z,7.27
2019-04-04T05:10:08.385Z,7.80
2019-04-04T05:12:35.722Z,7.57
2019-04-04T05:15:03.755Z,7.50
2019-04-04T05:17:31.310Z,7.67
2019-04-04T05:19:58.726Z,7.33
2019-04-04T05:22:26.389Z,7.43
2019-04-04T05:25:07.030Z,8.93
2019-04-04T05:27:22.898Z,8.53
2019-04-04T05:29:50.238Z,6.83
2019-04-04T05:32:20.950Z,7.33
2019-04-04T05:34:46.697Z,8.10
2019-04-04T05:37:14.109Z,7.33
2019-04-04T05:39:41.559Z,8.03
2019-04-04T05:42:08.878Z,8.20
2019-04-04T05:44:36.231Z,8.00
2019-04-04T05:47:03.861Z,8.00
2019-04-04T05:49:31.212Z,8.40
2019-04-04T05:51:58.577Z,8.20
2019-04-04T05:54:25.941Z,8.80
2019-04-04T05:56:53.195Z,8.53
2019-04-04T05:59:23.559Z,7.87
2019-04-04T06:01:49.749Z,8.83
2019-04-04T06:04:17.246Z,8.57
2019-04-04T06:06:46.210Z,8.33
2019-04-04T06:09:14.685Z,8.80
2019-04-04T06:11:42.510Z,9.20
2019-04-04T06:14:09.843Z,8.93
2019-04-04T06:16:37.052Z,8.83
2019-04-04T06:19:04.294Z,8.80
2019-04-04T06:21:31.744Z,9.00
2019-04-04T06:23:58.974Z,9.27
2019-04-04T06:26:26.282Z,8.67
2019-04-04T06:28:53.516Z,8.97
2019-04-04T06:31:20.835Z,9.07
2019-04-04T06:33:48.183Z,8.90
2019-04-04T06:36:17.554Z,9.40
2019-04-04T06:38:44.644Z,9.03
2019-04-04T06:41:12.260Z,9.73
2019-04-04T06:43:41.359Z,9.10
2019-04-04T06:46:08.748Z,9.03
2019-04-04T06:48:36.093Z,8.77
2019-04-04T06:51:03.635Z,9.10
2019-04-04T06:53:30.860Z,9.27
2019-04-04T06:55:58.172Z,8.83
2019-04-04T06:58:27.121Z,9.60
2019-04-04T07:00:54.573Z,9.87
2019-04-04T07:03:21.895Z,10.03
2019-04-04T07:05:49.244Z,9.90
2019-04-04T07:08:16.581Z,9.73
2019-04-04T07:10:43.900Z,9.57
2019-04-04T07:13:21.646Z,9.13
2019-04-04T07:15:46.619Z,9.87
2019-04-04T07:18:10.164Z,9.23
2019-04-04T07:20:38.529Z,8.50
2019-04-04T07:23:05.745Z,9.97
2019-04-04T07:25:35.697Z,9.30
2019-04-04T07:28:02.199Z,9.93
2019-04-04T07:30:29.403Z,10.13
2019-04-04T07:32:56.719Z,9.40
2019-04-04T07:35:24.068Z,9.67
2019-04-04T07:37:55.282Z,9.87
2019-04-04T07:40:20.532Z,9.80
2019-04-04T07:42:48.201Z,10.07
2019-04-04T07:45:15.481Z,10.13
2019-04-04T07:47:42.927Z,10.47
2019-04-04T07:50:10.405Z,10.03
2019-04-04T07:52:37.709Z,9.63
2019-04-04T07:55:05.344Z,10.17
2019-04-04T07:57:32.689Z,10.97
2019-04-04T08:00:00.040Z,10.03
2019-04-04T08:02:27.471Z,10.13
2019-04-04T08:04:54.823Z,9.83
2019-04-04T08:07:22.071Z,10.23
2019-04-04T08:09:49.294Z,9.83
2019-04-04T08:12:16.639Z,9.40
2019-04-04T08:14:43.882Z,9.53
2019-04-04T08:17:11.193Z,10.20
2019-04-04T08:19:38.536Z,8.87
2019-04-04T08:22:05.972Z,10.17
2019-04-04T08:24:33.307Z,9.53
2019-04-04T08:27:00.438Z,10.20
2019-04-04T08:29:27.784Z,10.50
2019-04-04T08:31:55.073Z,10.20
2019-04-04T08:34:22.448Z,10.30
2019-04-04T08:36:49.773Z,10.27
2019-04-04T08:39:17.125Z,10.47
2019-04-04T08:41:44.473Z,10.20
2019-04-04T08:44:11.685Z,10.73
2019-04-04T08:46:39.035Z,10.70
2019-04-04T08:49:06.276Z,11.23
2019-04-04T08:51:34.497Z,10.10
2019-04-04T08:54:01.837Z,11.23
2019-04-04T08:56:29.161Z,10.70
2019-04-04T08:58:56.384Z,9.77
2019-04-04T09:01:23.691Z,10.60
2019-04-04T09:03:51.150Z,10.73
2019-04-04T09:06:18.488Z,10.57
2019-04-04T09:08:45.847Z,10.83
2019-04-04T09:11:13.129Z,10.93
2019-04-04T09:13:40.423Z,9.67
2019-04-04T09:16:07.659Z,10.33
2019-04-04T09:18:34.912Z,11.17
2019-04-04T09:21:02.336Z,10.27
2019-04-04T09:23:29.666Z,10.37
2019-04-04T09:26:05.566Z,11.33
2019-04-04T09:28:26.017Z,10.60
2019-04-04T09:30:53.219Z,10.80
2019-04-04T09:33:21.069Z,10.60
2019-04-04T09:35:48.578Z,10.87
2019-04-04T09:38:15.916Z,10.73
2019-04-04T09:40:43.260Z,11.53
2019-04-04T09:43:10.351Z,10.83
2019-04-04T09:45:37.608Z,10.60
2019-04-04T09:48:05.077Z,9.90
2019-04-04T09:50:32.729Z,10.97
2019-04-04T09:53:00.040Z,11.97
2019-04-04T09:55:27.549Z,10.93
2019-04-04T09:57:54.895Z,11.33
2019-04-04T10:00:22.407Z,10.13
2019-04-04T10:02:49.764Z,11.00
2019-04-04T10:05:17.368Z,11.43
2019-04-04T10:07:44.813Z,11.73
2019-04-04T10:10:14.022Z,11.17
2019-04-04T10:12:41.275Z,10.80
2019-04-04T10:15:09.328Z,9.80
2019-04-04T10:17:36.536Z,10.77
2019-04-04T10:20:04.300Z,11.47
2019-04-04T10:22:31.599Z,11.30
2019-04-04T10:24:58.943Z,11.47
2019-04-04T10:27:26.261Z,11.30
2019-04-04T10:29:53.587Z,10.53
2019-04-04T10:32:20.817Z,11.93
2019-04-04T10:34:48.057Z,10.70
2019-04-04T10:37:15.403Z,10.97
2019-04-04T10:39:42.845Z,10.67
2019-04-04T10:42:10.206Z,10.87
2019-04-04T10:44:37.518Z,10.83
2019-04-04T10:47:04.835Z,11.00
2019-04-04T10:49:32.078Z,11.23
2019-04-04T10:51:59.448Z,11.07
2019-04-04T10:54:26.812Z,11.63
2019-04-04T10:56:54.169Z,10.73
2019-04-04T10:59:21.498Z,9.83
2019-04-04T11:01:48.731Z,10.70
2019-04-04T11:04:16.071Z,10.90
2019-04-04T11:06:43.287Z,10.97
2019-04-04T11:09:10.829Z,11.27
2019-04-04T11:11:38.212Z,11.03
2019-04-04T11:14:05.493Z,11.03
2019-04-04T11:16:32.834Z,11.30
2019-04-04T11:19:00.156Z,11.13
2019-04-04T11:21:27.601Z,10.53
2019-04-04T11:23:55.042Z,11.43
2019-04-04T11:26:22.372Z,11.13
2019-04-04T11:28:49.719Z,11.53
2019-04-04T11:31:17.050Z,11.17
2019-04-04T11:33:44.304Z,10.57
2019-04-04T11:36:11.609Z,11.20
2019-04-04T11:38:38.972Z,11.23
2019-04-04T11:41:06.288Z,10.70
2019-04-04T11:43:33.629Z,10.80
2019-04-04T11:46:00.873Z,11.43
2019-04-04T11:48:28.179Z,10.37
2019-04-04T11:50:55.594Z,10.53
2019-04-04T11:53:23.225Z,11.60
2019-04-04T11:55:50.482Z,10.97
2019-04-04T11:58:17.831Z,11.07
2019-04-04T12:00:47.171Z,10.70
2019-04-04T12:03:14.423Z,10.20
2019-04-04T12:05:41.848Z,11.67
2019-04-04T12:08:09.094Z,12.03
2019-04-04T12:10:36.326Z,11.57
2019-04-04T12:13:03.680Z,11.23
2019-04-04T12:15:31.097Z,11.13
2019-04-04T12:17:58.416Z,11.40
2019-04-04T12:20:25.764Z,10.77
2019-04-04T12:22:53.075Z,10.77
2019-04-04T12:25:20.469Z,11.57
2019-04-04T12:27:47.667Z,11.43
2019-04-04T12:30:15.331Z,11.27
2019-04-04T12:32:42.547Z,11.23
2019-04-04T12:35:09.955Z,10.67
2019-04-04T12:37:37.363Z,11.07
2019-04-04T12:40:05.682Z,11.00
2019-04-04T12:42:33.131Z,10.73
2019-04-04T12:45:00.358Z,11.03
2019-04-04T12:47:27.696Z,10.57
2019-04-04T12:49:54.916Z,11.23
2019-04-04T12:52:22.396Z,10.63
2019-04-04T12:54:49.848Z,10.83
2019-04-04T12:57:17.188Z,11.07
2019-04-04T12:59:44.581Z,10.90
2019-04-04T13:02:12.107Z,11.37
2019-04-04T13:04:39.381Z,11.67
2019-04-04T13:07:06.728Z,11.07
2019-04-04T13:09:34.057Z,11.40
2019-04-04T13:12:01.393Z,11.70
2019-04-04T13:14:28.616Z,11.30
2019-04-04T13:16:55.854Z,10.37
2019-04-04T13:19:23.292Z,11.07
2019-04-04T13:21:50.716Z,11.13
2019-04-04T13:24:18.092Z,10.27
2019-04-04T13:26:45.523Z,10.13
2019-04-04T13:29:12.744Z,10.57
2019-04-04T13:31:39.993Z,11.27
2019-04-04T13:34:07.363Z,10.77
2019-04-04T13:36:36.707Z,11.27
2019-04-04T13:39:07.948Z,11.27
2019-04-04T13:41:35.294Z,11.03
2019-04-04T13:44:02.621Z,11.33
2019-04-04T13:46:29.901Z,11.40
2019-04-04T13:48:57.219Z,11.83
2019-04-04T13:51:25.619Z,11.50
2019-04-04T13:53:53.132Z,10.80
2019-04-04T13:56:20.439Z,10.60
2019-04-04T13:58:47.739Z,10.27
2019-04-04T14:01:15.239Z,10.37
2019-04-04T14:03:42.491Z,10.43
2019-04-04T14:06:09.707Z,11.07
2019-04-04T14:08:39.260Z,11.27
2019-04-04T14:11:06.174Z,10.80
2019-04-04T14:13:33.524Z,11.03
2019-04-04T14:16:00.765Z,10.93
2019-04-04T14:18:39.168Z,11.43
2019-04-04T14:21:03.666Z,10.93
2019-04-04T14:23:26.477Z,11.20
2019-04-04T14:25:53.920Z,10.87
2019-04-04T14:28:21.236Z,10.37
2019-04-04T14:30:48.562Z,11.00
2019-04-04T14:33:16.042Z,11.00
2019-04-04T14:35:43.392Z,10.80
2019-04-04T14:38:10.711Z,11.03
2019-04-04T14:40:37.956Z,10.70
2019-04-04T14:43:05.305Z,10.73
2019-04-04T14:45:32.840Z,10.93
2019-04-04T14:48:00.152Z,10.20
2019-04-04T14:50:28.154Z,10.67
2019-04-04T14:52:55.774Z,10.80
2019-04-04T14:55:23.139Z,10.50
2019-04-04T14:57:50.473Z,10.63
2019-04-04T15:00:18.498Z,11.53
2019-04-04T15:02:45.816Z,10.33
2019-04-04T15:05:13.183Z,10.93
2019-04-04T15:07:40.446Z,11.33
2019-04-04T15:10:07.759Z,10.43
2019-04-04T15:12:34.908Z,10.90
2019-04-04T15:15:02.230Z,10.83
2019-04-04T15:17:29.701Z,10.83
2019-04-04T15:19:57.148Z,11.10
2019-04-04T15:22:24.423Z,10.70
2019-04-04T15:24:51.960Z,11.23
2019-04-04T15:27:19.220Z,10.90
2019-04-04T15:29:46.624Z,10.33
2019-04-04T15:32:13.872Z,10.47
2019-04-04T15:34:41.201Z,10.90
2019-04-04T15:37:08.655Z,10.60
2019-04-04T15:39:35.871Z,10.67
2019-04-04T15:42:03.307Z,10.53
2019-04-04T15:44:30.553Z,11.07
2019-04-04T15:46:57.912Z,10.97
2019-04-04T15:49:25.158Z,10.53
2019-04-04T15:51:52.504Z,10.73
2019-04-04T15:54:19.871Z,11.47
2019-04-04T15:56:47.184Z,10.70
2019-04-04T15:59:14.448Z,11.17
2019-04-04T16:01:41.940Z,10.70
2019-04-04T16:04:09.157Z,11.80
2019-04-04T16:06:36.614Z,11.70
2019-04-04T16:09:05.987Z,11.77
2019-04-04T16:11:33.308Z,11.00
2019-04-04T16:14:00.555Z,12.17
2019-04-04T16:16:27.872Z,11.40
2019-04-04T16:18:55.217Z,11.13
2019-04-04T16:21:22.536Z,12.50
2019-04-04T16:23:49.866Z,11.93
2019-04-04T16:26:17.420Z,12.07
2019-04-04T16:28:44.947Z,11.43
2019-04-04T16:31:12.380Z,12.23
2019-04-04T16:33:39.628Z,12.07
2019-04-04T16:36:06.954Z,12.87
2019-04-04T16:38:34.155Z,12.60
2019-04-04T16:41:02.269Z,11.63
2019-04-04T16:43:29.697Z,11.73
2019-04-04T16:45:57.216Z,12.13
2019-04-04T16:48:25.587Z,12.50
2019-04-04T16:50:52.908Z,12.40
2019-04-04T16:53:20.229Z,11.57
2019-04-04T16:55:47.551Z,12.67
2019-04-04T16:58:14.784Z,12.60
2019-04-04T17:00:42.717Z,12.03
2019-04-04T17:03:10.081Z,12.07
2019-04-04T17:05:37.400Z,12.27
2019-04-04T17:08:04.769Z,11.63
2019-04-04T17:10:32.102Z,12.60
2019-04-04T17:12:59.372Z,11.20
2019-04-04T17:15:26.660Z,12.20
2019-04-04T17:17:53.879Z,12.67
2019-04-04T17:20:21.216Z,12.07
2019-04-04T17:22:48.441Z,11.43
2019-04-04T17:25:16.124Z,11.67
2019-04-04T17:27:43.624Z,11.93
2019-04-04T17:30:11.609Z,11.13
2019-04-04T17:32:38.930Z,12.13
2019-04-04T17:35:06.501Z,11.90
2019-04-04T17:37:33.914Z,11.50
2019-04-04T17:40:01.247Z,12.40
2019-04-04T17:42:32.105Z,12.00
2019-04-04T17:45:01.067Z,12.03
2019-04-04T17:47:27.321Z,11.63
2019-04-04T17:49:54.759Z,12.03
2019-04-04T17:52:22.064Z,11.87
2019-04-04T17:54:49.931Z,11.93
2019-04-04T17:57:17.771Z,12.67
2019-04-04T17:59:45.094Z,11.77
2019-04-04T18:02:12.446Z,12.47
2019-04-04T18:04:48.325Z,13.23
2019-04-04T18:07:08.952Z,12.37
2019-04-04T18:09:36.212Z,13.10
2019-04-04T18:12:03.628Z,12.80
2019-04-04T18:14:30.954Z,12.47
2019-04-04T18:16:58.340Z,12.03
2019-04-04T18:19:25.713Z,11.57
2019-04-04T18:21:53.231Z,11.83
2019-04-04T18:24:20.466Z,12.80
2019-04-04T18:26:47.802Z,13.00
2019-04-04T18:29:15.040Z,12.30
2019-04-04T18:31:42.388Z,12.50
2019-04-04T18:34:09.852Z,11.77
2019-04-04T18:36:37.223Z,12.17
2019-04-04T18:39:06.595Z,12.47
2019-04-04T18:41:33.908Z,12.30
2019-04-04T18:44:01.274Z,12.07
2019-04-04T18:46:28.601Z,12.43
2019-04-04T18:48:56.090Z,12.07
2019-04-04T18:51:23.473Z,12.03
2019-04-04T18:53:50.803Z,12.37
2019-04-04T18:56:18.152Z,11.90
2019-04-04T18:58:45.571Z,12.07
2019-04-04T19:01:13.485Z,11.67
2019-04-04T19:03:40.828Z,12.33
2019-04-04T19:06:08.191Z,11.97
2019-04-04T19:08:35.502Z,11.73
2019-04-04T19:11:02.839Z,12.50
2019-04-04T19:13:38.501Z,11.57
2019-04-04T19:15:59.523Z,12.03
2019-04-04T19:18:26.863Z,11.87
2019-04-04T19:20:54.119Z,12.00
2019-04-04T19:23:21.337Z,10.73
2019-04-04T19:25:48.679Z,11.30
2019-04-04T19:28:16.100Z,11.43
2019-04-04T19:30:43.461Z,11.43
2019-04-04T19:33:10.678Z,11.23
2019-04-04T19:35:38.018Z,11.57
2019-04-04T19:38:05.336Z,11.53
2019-04-04T19:40:33.008Z,11.30
2019-04-04T19:43:00.464Z,11.63
2019-04-04T19:45:27.784Z,11.70
2019-04-04T19:47:55.242Z,10.50
2019-04-04T19:50:22.590Z,11.50
2019-04-04T19:52:49.915Z,11.30
2019-04-04T19:55:17.376Z,10.80
2019-04-04T19:57:44.665Z,11.27
2019-04-04T20:00:12.229Z,10.87
2019-04-04T20:02:39.616Z,10.73
2019-04-04T20:05:07.889Z,10.93
2019-04-04T20:07:35.351Z,10.30
2019-04-04T20:10:03.149Z,10.83
2019-04-04T20:12:30.465Z,11.00
2019-04-04T20:14:57.734Z,10.13
2019-04-04T20:17:24.978Z,11.20
2019-04-04T20:19:52.380Z,10.47
2019-04-04T20:22:19.813Z,11.07
2019-04-04T20:24:47.228Z,10.90
2019-04-04T20:27:14.540Z,11.50
2019-04-04T20:29:41.873Z,10.87
2019-04-04T20:32:09.221Z,11.40
2019-04-04T20:34:36.446Z,10.83
2019-04-04T20:37:03.807Z,11.13
2019-04-04T20:39:31.382Z,10.70
2019-04-04T20:41:58.742Z,11.07
2019-04-04T20:44:26.411Z,10.27
2019-04-04T20:46:53.757Z,11.70
2019-04-04T20:49:21.210Z,11.30
2019-04-04T20:51:48.589Z,11.17
2019-04-04T20:54:15.947Z,10.60
2019-04-04T20:56:43.259Z,11.30
2019-04-04T20:59:10.591Z,11.47
2019-04-04T21:01:38.040Z,10.90
2019-04-04T21:04:05.396Z,10.77
2019-04-04T21:06:32.628Z,10.87
2019-04-04T21:08:59.958Z,10.80
2019-04-04T21:11:27.434Z,10.37
2019-04-04T21:13:56.540Z,11.13
2019-04-04T21:16:23.926Z,11.50
2019-04-04T21:18:51.264Z,11.00
2019-04-04T21:21:18.766Z,11.00
2019-04-04T21:23:46.040Z,11.00
2019-04-04T21:26:13.712Z,11.40
2019-04-04T21:28:40.935Z,11.17
2019-04-04T21:31:08.390Z,10.50
2019-04-04T21:33:37.693Z,11.03
2019-04-04T21:36:05.012Z,11.17
2019-04-04T21:38:32.343Z,10.77
2019-04-04T21:40:59.723Z,11.20
2019-04-04T21:43:28.576Z,11.17
2019-04-04T21:45:55.847Z,10.83
2019-04-04T21:48:23.168Z,10.83
2019-04-04T21:50:50.654Z,11.20
2019-04-04T21:53:17.979Z,10.60
2019-04-04T21:55:45.218Z,10.67
2019-04-04T21:58:12.641Z,10.97
2019-04-04T22:00:41.795Z,10.67
2019-04-04T22:03:09.208Z,11.37
2019-04-04T22:05:36.686Z,11.07
2019-04-04T22:08:04.163Z,11.07
2019-04-04T22:10:31.496Z,11.50
2019-04-04T22:12:58.832Z,11.20
2019-04-04T22:15:26.188Z,11.17
2019-04-04T22:17:53.568Z,10.83
2019-04-04T22:20:20.967Z,11.57
2019-04-04T22:22:48.317Z,11.70
2019-04-04T22:25:15.656Z,11.97
2019-04-04T22:27:43.036Z,11.53
2019-04-04T22:30:11.168Z,11.07
2019-04-04T22:32:38.541Z,11.20
2019-04-04T22:35:06.933Z,10.67
2019-04-04T22:37:34.281Z,11.10
2019-04-04T22:40:01.701Z,11.70
2019-04-04T22:42:29.176Z,11.40
2019-04-04T22:44:56.560Z,11.00
2019-04-04T22:47:24.319Z,11.30
2019-04-04T22:49:51.600Z,11.33
2019-04-04T22:52:18.855Z,11.90
2019-04-04T22:54:46.174Z,11.27
2019-04-04T22:57:13.636Z,10.40
2019-04-04T22:59:41.082Z,11.40
2019-04-04T23:02:08.349Z,12.33
2019-04-04T23:04:35.753Z,11.37
2019-04-04T23:07:03.091Z,11.87
2019-04-04T23:09:30.436Z,11.63
2019-04-04T23:11:57.806Z,10.80
2019-04-04T23:14:25.274Z,11.87
2019-04-04T23:16:52.869Z,11.37
2019-04-04T23:19:20.319Z,12.07
2019-04-04T23:21:47.554Z,11.83
2019-04-04T23:24:14.911Z,11.27
2019-04-04T23:26:42.251Z,11.67
2019-04-04T23:29:09.655Z,11.10
2019-04-04T23:31:36.768Z,12.37
2019-04-04T23:34:04.195Z,10.83
2019-04-04T23:36:35.232Z,11.27
2019-04-04T23:39:00.625Z,12.50
2019-04-04T23:41:27.971Z,11.63
2019-04-04T23:43:55.201Z,11.57
2019-04-04T23:46:22.620Z,11.97
2019-04-04T23:48:49.988Z,11.70
2019-04-04T23:51:17.405Z,11.93
2019-04-04T23:53:44.761Z,11.47
2019-04-04T23:56:12.104Z,11.77
2019-04-04T23:58:39.601Z,11.97
